sensor_id;sensor_type;location;lat;lon;timestamp;pressure;altitude;pressure_sealevel;temperature;humidity
25350;BME280;13302;48.796;11.978;2022-12-18T00:02:00;97992.94;;;0.53;29.14
25350;BME280;13302;48.796;11.978;2022-12-18T00:04:47;97995.41;;;0.55;29.01
25350;BME280;13302;48.796;11.978;2022-12-18T00:07:35;97994.06;;;0.57;29.13
25350;BME280;13302;48.796;11.978;2022-12-18T00:10:22;97993.53;;;0.60;29.12
25350;BME280;13302;48.796;11.978;2022-12-18T00:13:10;97989.75;;;0.61;29.19
25350;BME280;13302;48.796;11.978;2022-12-18T00:16:02;97991.38;;;0.62;29.15
25350;BME280;13302;48.796;11.978;2022-12-18T00:18:52;98000.09;;;0.64;29.21
25350;BME280;13302;48.796;11.978;2022-12-18T00:21:40;98003.94;;;0.68;29.08
25350;BME280;13302;48.796;11.978;2022-12-18T00:24:28;98000.97;;;0.70;28.92
25350;BME280;13302;48.796;11.978;2022-12-18T00:27:15;98004.00;;;0.73;29.28
25350;BME280;13302;48.796;11.978;2022-12-18T00:30:02;98004.28;;;0.77;29.03
25350;BME280;13302;48.796;11.978;2022-12-18T00:32:49;98013.28;;;0.77;28.94
25350;BME280;13302;48.796;11.978;2022-12-18T00:35:36;98021.19;;;0.79;29.10
25350;BME280;13302;48.796;11.978;2022-12-18T00:38:23;98023.66;;;0.80;29.24
25350;BME280;13302;48.796;11.978;2022-12-18T00:41:11;98016.31;;;0.81;29.21
25350;BME280;13302;48.796;11.978;2022-12-18T00:43:58;98018.78;;;0.82;29.25
25350;BME280;13302;48.796;11.978;2022-12-18T00:46:47;98025.59;;;0.85;29.36
25350;BME280;13302;48.796;11.978;2022-12-18T00:49:34;98032.69;;;0.86;29.19
25350;BME280;13302;48.796;11.978;2022-12-18T00:52:21;98033.50;;;0.86;29.34
25350;BME280;13302;48.796;11.978;2022-12-18T00:55:08;98027.81;;;0.88;29.40
25350;BME280;13302;48.796;11.978;2022-12-18T00:57:55;98021.84;;;0.91;29.64
25350;BME280;13302;48.796;11.978;2022-12-18T01:00:43;98009.88;;;0.92;29.55
25350;BME280;13302;48.796;11.978;2022-12-18T01:03:30;98006.63;;;0.95;29.52
25350;BME280;13302;48.796;11.978;2022-12-18T01:06:17;98000.94;;;0.97;29.41
25350;BME280;13302;48.796;11.978;2022-12-18T01:09:04;98014.00;;;1.00;29.44
25350;BME280;13302;48.796;11.978;2022-12-18T01:11:51;98020.00;;;1.02;29.37
25350;BME280;13302;48.796;11.978;2022-12-18T01:14:38;98021.66;;;1.03;29.49
25350;BME280;13302;48.796;11.978;2022-12-18T01:17:25;98005.88;;;1.05;29.43
25350;BME280;13302;48.796;11.978;2022-12-18T01:20:13;98018.69;;;1.04;29.66
25350;BME280;13302;48.796;11.978;2022-12-18T01:23:00;98024.66;;;1.06;29.58
25350;BME280;13302;48.796;11.978;2022-12-18T01:25:47;98026.31;;;1.07;29.47
25350;BME280;13302;48.796;11.978;2022-12-18T01:28:34;98029.63;;;1.09;29.65
25350;BME280;13302;48.796;11.978;2022-12-18T01:31:24;98040.50;;;1.09;29.45
25350;BME280;13302;48.796;11.978;2022-12-18T01:34:11;98049.22;;;1.11;29.54
25350;BME280;13302;48.796;11.978;2022-12-18T01:36:58;98050.88;;;1.12;29.66
25350;BME280;13302;48.796;11.978;2022-12-18T01:39:45;98053.31;;;1.14;29.63
25350;BME280;13302;48.796;11.978;2022-12-18T01:42:33;98062.31;;;1.14;29.70
25350;BME280;13302;48.796;11.978;2022-12-18T01:45:31;98056.03;;;1.14;29.65
25350;BME280;13302;48.796;11.978;2022-12-18T01:48:19;98058.50;;;1.15;29.83
25350;BME280;13302;48.796;11.978;2022-12-18T01:51:08;98061.22;;;1.15;29.88
25350;BME280;13302;48.796;11.978;2022-12-18T01:53:56;98065.06;;;1.19;29.71
25350;BME280;13302;48.796;11.978;2022-12-18T01:56:44;98058.56;;;1.20;29.82
25350;BME280;13302;48.796;11.978;2022-12-18T01:59:32;98062.09;;;1.21;29.88
25350;BME280;13302;48.796;11.978;2022-12-18T02:02:20;98058.28;;;1.22;30.02
25350;BME280;13302;48.796;11.978;2022-12-18T02:05:09;98055.56;;;1.22;29.81
25350;BME280;13302;48.796;11.978;2022-12-18T02:08:10;98056.94;;;1.24;29.71
25350;BME280;13302;48.796;11.978;2022-12-18T02:11:18;98055.31;;;1.23;29.94
25350;BME280;13302;48.796;11.978;2022-12-18T02:14:17;98052.88;;;1.27;30.11
25350;BME280;13302;48.796;11.978;2022-12-18T02:17:15;98057.50;;;1.26;29.72
25350;BME280;13302;48.796;11.978;2022-12-18T02:20:20;98065.19;;;1.29;29.89
25350;BME280;13302;48.796;11.978;2022-12-18T02:24:27;98062.47;;;1.29;29.93
25350;BME280;13302;48.796;11.978;2022-12-18T02:26:56;98063.00;;;1.31;29.79
25350;BME280;13302;48.796;11.978;2022-12-18T02:29:50;98060.88;;;1.33;29.66
25350;BME280;13302;48.796;11.978;2022-12-18T02:32:48;98060.03;;;1.33;29.92
25350;BME280;13302;48.796;11.978;2022-12-18T02:35:38;98067.09;;;1.34;30.10
25350;BME280;13302;48.796;11.978;2022-12-18T02:38:29;98069.59;;;1.35;29.92
25350;BME280;13302;48.796;11.978;2022-12-18T02:41:29;98073.97;;;1.36;30.01
25350;BME280;13302;48.796;11.978;2022-12-18T02:44:17;98065.50;;;1.38;29.95
25350;BME280;13302;48.796;11.978;2022-12-18T02:47:04;98063.34;;;1.40;30.13
25350;BME280;13302;48.796;11.978;2022-12-18T02:56:18;98076.72;;;1.42;30.17
25350;BME280;13302;48.796;11.978;2022-12-18T03:02:20;98086.25;;;1.44;29.96
25350;BME280;13302;48.796;11.978;2022-12-18T03:05:22;98075.13;;;1.46;29.86
25350;BME280;13302;48.796;11.978;2022-12-18T03:08:17;98068.31;;;1.48;29.97
25350;BME280;13302;48.796;11.978;2022-12-18T03:11:12;98066.69;;;1.52;29.94
25350;BME280;13302;48.796;11.978;2022-12-18T03:14:03;98064.78;;;1.53;30.05
25350;BME280;13302;48.796;11.978;2022-12-18T03:16:53;98062.91;;;1.53;29.88
25350;BME280;13302;48.796;11.978;2022-12-18T03:19:42;98059.09;;;1.54;29.95
25350;BME280;13302;48.796;11.978;2022-12-18T03:22:32;98054.44;;;1.55;29.95
25350;BME280;13302;48.796;11.978;2022-12-18T03:25:22;98058.56;;;1.57;29.98
25350;BME280;13302;48.796;11.978;2022-12-18T03:28:16;98055.00;;;1.57;30.06
25350;BME280;13302;48.796;11.978;2022-12-18T03:31:11;98044.66;;;1.59;30.16
25350;BME280;13302;48.796;11.978;2022-12-18T03:34:01;98045.75;;;1.63;30.12
25350;BME280;13302;48.796;11.978;2022-12-18T03:36:59;98048.50;;;1.63;29.99
25350;BME280;13302;48.796;11.978;2022-12-18T03:39:48;98049.31;;;1.63;30.14
25350;BME280;13302;48.796;11.978;2022-12-18T03:45:42;98046.34;;;1.65;30.18
25350;BME280;13302;48.796;11.978;2022-12-18T03:48:46;98040.34;;;1.68;30.08
25350;BME280;13302;48.796;11.978;2022-12-18T03:51:43;98043.91;;;1.68;30.08
25350;BME280;13302;48.796;11.978;2022-12-18T03:54:36;98050.47;;;1.72;30.15
25350;BME280;13302;48.796;11.978;2022-12-18T03:57:32;98040.91;;;1.70;30.08
25350;BME280;13302;48.796;11.978;2022-12-18T04:00:21;98041.75;;;1.70;29.97
25350;BME280;13302;48.796;11.978;2022-12-18T04:03:24;98050.47;;;1.72;30.01
25350;BME280;13302;48.796;11.978;2022-12-18T04:06:14;98046.66;;;1.73;30.23
25350;BME280;13302;48.796;11.978;2022-12-18T04:09:03;98051.03;;;1.74;30.17
25350;BME280;13302;48.796;11.978;2022-12-18T04:11:55;98064.38;;;1.76;30.22
25350;BME280;13302;48.796;11.978;2022-12-18T04:14:43;98064.38;;;1.76;30.25
25350;BME280;13302;48.796;11.978;2022-12-18T04:17:30;98074.19;;;1.77;30.26
25350;BME280;13302;48.796;11.978;2022-12-18T04:20:17;98069.56;;;1.77;30.20
25350;BME280;13302;48.796;11.978;2022-12-18T04:23:05;98072.03;;;1.79;30.36
25350;BME280;13302;48.796;11.978;2022-12-18T04:25:53;98074.78;;;1.79;30.33
25350;BME280;13302;48.796;11.978;2022-12-18T04:28:53;98068.22;;;1.80;30.39
25350;BME280;13302;48.796;11.978;2022-12-18T04:31:40;98077.22;;;1.80;30.28
25350;BME280;13302;48.796;11.978;2022-12-18T04:34:28;98068.78;;;1.82;30.45
25350;BME280;13302;48.796;11.978;2022-12-18T04:37:16;98076.97;;;1.82;30.24
25350;BME280;13302;48.796;11.978;2022-12-18T04:40:05;98087.59;;;1.83;30.22
25350;BME280;13302;48.796;11.978;2022-12-18T04:42:59;98094.69;;;1.84;30.23
25350;BME280;13302;48.796;11.978;2022-12-18T04:45:46;98098.53;;;1.89;30.36
25350;BME280;13302;48.796;11.978;2022-12-18T04:48:34;98098.81;;;1.87;30.36
25350;BME280;13302;48.796;11.978;2022-12-18T04:51:22;98093.34;;;1.87;30.31
25350;BME280;13302;48.796;11.978;2022-12-18T04:54:12;98095.25;;;1.87;30.26
25350;BME280;13302;48.796;11.978;2022-12-18T04:57:00;98101.53;;;1.87;30.25
25350;BME280;13302;48.796;11.978;2022-12-18T04:59:47;98094.97;;;1.88;30.24
25350;BME280;13302;48.796;11.978;2022-12-18T05:02:34;98103.44;;;1.87;30.39
25350;BME280;13302;48.796;11.978;2022-12-18T05:05:21;98113.22;;;1.88;30.38
25350;BME280;13302;48.796;11.978;2022-12-18T05:08:08;98115.41;;;1.86;30.41
25350;BME280;13302;48.796;11.978;2022-12-18T05:11:14;98113.78;;;1.84;30.48
25350;BME280;13302;48.796;11.978;2022-12-18T05:14:04;98109.72;;;1.87;30.55
25350;BME280;13302;48.796;11.978;2022-12-18T05:16:51;98108.88;;;1.87;30.59
25350;BME280;13302;48.796;11.978;2022-12-18T05:19:43;98116.78;;;1.88;30.54
25350;BME280;13302;48.796;11.978;2022-12-18T05:22:30;98120.63;;;1.87;30.44
25350;BME280;13302;48.796;11.978;2022-12-18T05:25:17;98115.97;;;1.88;30.25
25350;BME280;13302;48.796;11.978;2022-12-18T05:28:04;98112.16;;;1.89;30.37
25350;BME280;13302;48.796;11.978;2022-12-18T05:30:53;98110.25;;;1.89;30.73
25350;BME280;13302;48.796;11.978;2022-12-18T05:33:41;98111.91;;;1.90;30.41
25350;BME280;13302;48.796;11.978;2022-12-18T05:36:29;98120.91;;;1.91;30.28
25350;BME280;13302;48.796;11.978;2022-12-18T05:39:16;98104.81;;;1.89;30.28
25350;BME280;13302;48.796;11.978;2022-12-18T05:42:03;98111.91;;;1.90;30.52
25350;BME280;13302;48.796;11.978;2022-12-18T05:44:50;98110.00;;;1.91;30.49
25350;BME280;13302;48.796;11.978;2022-12-18T05:47:37;98114.63;;;1.90;30.50
25350;BME280;13302;48.796;11.978;2022-12-18T05:50:24;98111.91;;;1.90;30.53
25350;BME280;13302;48.796;11.978;2022-12-18T05:53:12;98117.91;;;1.92;30.43
25350;BME280;13302;48.796;11.978;2022-12-18T05:56:01;98120.63;;;1.92;30.36
25350;BME280;13302;48.796;11.978;2022-12-18T05:58:52;98120.63;;;1.92;30.29
25350;BME280;13302;48.796;11.978;2022-12-18T06:01:40;98125.81;;;1.94;30.36
25350;BME280;13302;48.796;11.978;2022-12-18T06:04:27;98125.28;;;1.97;30.19
25350;BME280;13302;48.796;11.978;2022-12-18T06:07:15;98129.09;;;1.96;30.36
25350;BME280;13302;48.796;11.978;2022-12-18T06:10:02;98137.56;;;1.94;30.30
25350;BME280;13302;48.796;11.978;2022-12-18T06:12:49;98146.56;;;1.95;30.23
25350;BME280;13302;48.796;11.978;2022-12-18T06:15:37;98144.09;;;1.93;30.32
25350;BME280;13302;48.796;11.978;2022-12-18T06:18:24;98142.19;;;1.94;30.54
25350;BME280;13302;48.796;11.978;2022-12-18T06:21:11;98143.25;;;1.93;30.34
25350;BME280;13302;48.796;11.978;2022-12-18T06:23:59;98146.81;;;1.93;30.44
25350;BME280;13302;48.796;11.978;2022-12-18T06:26:46;98148.19;;;1.96;30.43
25350;BME280;13302;48.796;11.978;2022-12-18T06:29:34;98137.03;;;1.97;30.38
25350;BME280;13302;48.796;11.978;2022-12-18T06:32:21;98139.75;;;1.97;30.19
25350;BME280;13302;48.796;11.978;2022-12-18T06:35:08;98132.13;;;1.99;30.19
25350;BME280;13302;48.796;11.978;2022-12-18T06:37:55;98139.75;;;1.97;30.27
25350;BME280;13302;48.796;11.978;2022-12-18T06:40:42;98147.09;;;1.97;30.49
25350;BME280;13302;48.796;11.978;2022-12-18T06:43:29;98149.84;;;1.97;30.46
25350;BME280;13302;48.796;11.978;2022-12-18T06:46:16;98151.75;;;1.96;30.53
25350;BME280;13302;48.796;11.978;2022-12-18T06:49:03;98157.19;;;1.96;30.45
25350;BME280;13302;48.796;11.978;2022-12-18T06:51:50;98171.94;;;1.95;30.40
25350;BME280;13302;48.796;11.978;2022-12-18T06:54:37;98167.81;;;1.93;30.44
25350;BME280;13302;48.796;11.978;2022-12-18T06:57:24;98171.63;;;1.92;30.51
25350;BME280;13302;48.796;11.978;2022-12-18T07:00:11;98162.88;;;1.90;30.61
25350;BME280;13302;48.796;11.978;2022-12-18T07:02:58;98162.06;;;1.89;30.42
25350;BME280;13302;48.796;11.978;2022-12-18T07:05:45;98169.41;;;1.89;30.44
25350;BME280;13302;48.796;11.978;2022-12-18T07:08:33;98177.59;;;1.89;30.46
25350;BME280;13302;48.796;11.978;2022-12-18T07:11:20;98172.16;;;1.89;30.56
25350;BME280;13302;48.796;11.978;2022-12-18T07:14:07;98182.81;;;1.90;30.56
25350;BME280;13302;48.796;11.978;2022-12-18T07:16:54;98184.69;;;1.90;30.58
25350;BME280;13302;48.796;11.978;2022-12-18T07:19:41;98175.44;;;1.91;30.52
25350;BME280;13302;48.796;11.978;2022-12-18T07:22:28;98181.72;;;1.91;30.64
25350;BME280;13302;48.796;11.978;2022-12-18T07:25:15;98185.53;;;1.90;30.62
25350;BME280;13302;48.796;11.978;2022-12-18T07:28:02;98180.06;;;1.90;30.62
25350;BME280;13302;48.796;11.978;2022-12-18T07:30:49;98180.91;;;1.91;30.42
25350;BME280;13302;48.796;11.978;2022-12-18T07:33:36;98194.25;;;1.92;30.49
25350;BME280;13302;48.796;11.978;2022-12-18T07:36:24;98196.72;;;1.94;30.69
25350;BME280;13302;48.796;11.978;2022-12-18T07:39:11;98181.44;;;1.93;30.59
25350;BME280;13302;48.796;11.978;2022-12-18T07:41:58;98179.00;;;1.91;30.57
25350;BME280;13302;48.796;11.978;2022-12-18T07:45:21;98197.25;;;1.91;30.63
25350;BME280;13302;48.796;11.978;2022-12-18T07:48:08;98185.53;;;1.90;30.52
25350;BME280;13302;48.796;11.978;2022-12-18T07:51:02;98195.59;;;1.90;30.53
25350;BME280;13302;48.796;11.978;2022-12-18T07:53:50;98198.09;;;1.91;30.57
25350;BME280;13302;48.796;11.978;2022-12-18T07:56:38;98194.53;;;1.91;30.58
25350;BME280;13302;48.796;11.978;2022-12-18T07:59:25;98181.97;;;1.90;30.60
25350;BME280;13302;48.796;11.978;2022-12-18T08:02:12;98189.91;;;1.91;30.45
25350;BME280;13302;48.796;11.978;2022-12-18T08:04:59;98187.97;;;1.92;30.40
25350;BME280;13302;48.796;11.978;2022-12-18T08:07:46;98182.53;;;1.92;30.41
25350;BME280;13302;48.796;11.978;2022-12-18T08:10:33;98187.19;;;1.91;30.45
25350;BME280;13302;48.796;11.978;2022-12-18T08:13:21;98187.97;;;1.87;30.51
25350;BME280;13302;48.796;11.978;2022-12-18T08:16:08;98192.84;;;1.84;30.34
25350;BME280;13302;48.796;11.978;2022-12-18T08:18:55;98200.19;;;1.84;30.67
25350;BME280;13302;48.796;11.978;2022-12-18T08:21:42;98201.84;;;1.85;30.63
25350;BME280;13302;48.796;11.978;2022-12-18T08:24:29;98201.84;;;1.85;30.69
25350;BME280;13302;48.796;11.978;2022-12-18T08:27:17;98209.78;;;1.87;30.72
25350;BME280;13302;48.796;11.978;2022-12-18T08:30:15;98210.31;;;1.89;30.68
25350;BME280;13302;48.796;11.978;2022-12-18T08:33:03;98217.16;;;1.91;30.65
25350;BME280;13302;48.796;11.978;2022-12-18T08:35:50;98218.78;;;1.92;30.77
25350;BME280;13302;48.796;11.978;2022-12-18T08:38:37;98218.53;;;1.94;30.72
25350;BME280;13302;48.796;11.978;2022-12-18T08:41:24;98223.75;;;1.95;30.86
25350;BME280;13302;48.796;11.978;2022-12-18T08:44:11;98222.63;;;1.96;30.67
25350;BME280;13302;48.796;11.978;2022-12-18T08:47:17;98226.19;;;1.97;30.67
25350;BME280;13302;48.796;11.978;2022-12-18T08:50:04;98234.13;;;1.98;30.63
25350;BME280;13302;48.796;11.978;2022-12-18T08:52:51;98235.78;;;1.99;30.66
25350;BME280;13302;48.796;11.978;2022-12-18T08:55:38;98240.94;;;2.01;30.71
25350;BME280;13302;48.796;11.978;2022-12-18T08:58:25;98245.06;;;2.03;30.80
25350;BME280;13302;48.796;11.978;2022-12-18T09:01:13;98247.53;;;2.05;30.93
25350;BME280;13302;48.796;11.978;2022-12-18T09:04:00;98250.81;;;2.07;30.80
25350;BME280;13302;48.796;11.978;2022-12-18T09:06:47;98253.28;;;2.08;30.66
25350;BME280;13302;48.796;11.978;2022-12-18T09:09:35;98251.13;;;2.10;30.76
25350;BME280;13302;48.796;11.978;2022-12-18T09:12:22;98249.75;;;2.13;30.60
25350;BME280;13302;48.796;11.978;2022-12-18T09:15:09;98244.59;;;2.16;30.73
25350;BME280;13302;48.796;11.978;2022-12-18T09:17:56;98234.25;;;2.18;30.60
25350;BME280;13302;48.796;11.978;2022-12-18T09:20:43;98231.53;;;2.18;30.61
25350;BME280;13302;48.796;11.978;2022-12-18T09:23:31;98226.91;;;2.19;30.60
25350;BME280;13302;48.796;11.978;2022-12-18T09:26:18;98226.91;;;2.19;30.52
25350;BME280;13302;48.796;11.978;2022-12-18T09:29:05;98225.50;;;2.16;30.55
25350;BME280;13302;48.796;11.978;2022-12-18T09:31:54;98227.44;;;2.16;30.66
25350;BME280;13302;48.796;11.978;2022-12-18T09:34:41;98221.41;;;2.14;30.76
25350;BME280;13302;48.796;11.978;2022-12-18T09:37:28;98220.56;;;2.13;30.55
25350;BME280;13302;48.796;11.978;2022-12-18T09:40:21;98227.41;;;2.11;30.59
25350;BME280;13302;48.796;11.978;2022-12-18T09:43:14;98219.47;;;2.09;30.62
25350;BME280;13302;48.796;11.978;2022-12-18T09:46:07;98232.56;;;2.07;30.72
25350;BME280;13302;48.796;11.978;2022-12-18T09:49:00;98221.66;;;2.07;30.74
25350;BME280;13302;48.796;11.978;2022-12-18T09:51:58;98214.28;;;2.08;31.15
25350;BME280;13302;48.796;11.978;2022-12-18T09:54:53;98208.31;;;2.11;30.80
25350;BME280;13302;48.796;11.978;2022-12-18T09:57:46;98212.13;;;2.15;30.71
25350;BME280;13302;48.796;11.978;2022-12-18T10:00:34;98203.16;;;2.19;30.77
25350;BME280;13302;48.796;11.978;2022-12-18T10:03:21;98201.81;;;2.22;30.68
25350;BME280;13302;48.796;11.978;2022-12-18T10:06:32;98196.09;;;2.23;30.71
25350;BME280;13302;48.796;11.978;2022-12-18T10:15:36;98185.19;;;2.28;30.61
25350;BME280;13302;48.796;11.978;2022-12-18T10:24:54;98187.41;;;2.32;30.44
25350;BME280;13302;48.796;11.978;2022-12-18T10:27:40;98182.78;;;2.32;30.37
25350;BME280;13302;48.796;11.978;2022-12-18T10:30:27;98187.94;;;2.34;30.54
25350;BME280;13302;48.796;11.978;2022-12-18T10:33:17;98187.13;;;2.33;30.59
25350;BME280;13302;48.796;11.978;2022-12-18T10:36:05;98190.44;;;2.35;30.36
25350;BME280;13302;48.796;11.978;2022-12-18T10:38:53;98186.63;;;2.36;30.37
25350;BME280;13302;48.796;11.978;2022-12-18T10:41:40;98191.78;;;2.38;30.47
25350;BME280;13302;48.796;11.978;2022-12-18T10:44:27;98187.16;;;2.38;30.56
25350;BME280;13302;48.796;11.978;2022-12-18T10:47:15;98179.78;;;2.39;30.50
25350;BME280;13302;48.796;11.978;2022-12-18T10:50:05;98188.25;;;2.42;30.26
25350;BME280;13302;48.796;11.978;2022-12-18T10:53:04;98175.69;;;2.41;30.12
25350;BME280;13302;48.796;11.978;2022-12-18T10:55:54;98177.31;;;2.37;30.01
25350;BME280;13302;48.796;11.978;2022-12-18T10:58:41;98171.28;;;2.30;30.03
25350;BME280;13302;48.796;11.978;2022-12-18T11:01:49;98175.09;;;2.24;30.27
25350;BME280;13302;48.796;11.978;2022-12-18T11:04:50;98172.59;;;2.17;30.33
25350;BME280;13302;48.796;11.978;2022-12-18T11:07:48;98176.94;;;2.13;30.38
25350;BME280;13302;48.796;11.978;2022-12-18T11:10:37;98177.47;;;2.10;30.44
25350;BME280;13302;48.796;11.978;2022-12-18T11:13:28;98177.72;;;2.09;30.64
25350;BME280;13302;48.796;11.978;2022-12-18T11:16:19;98186.19;;;2.07;30.64
25350;BME280;13302;48.796;11.978;2022-12-18T11:22:25;98186.19;;;2.12;30.85
25350;BME280;13302;48.796;11.978;2022-12-18T11:31:26;98179.19;;;2.26;30.71
25350;BME280;13302;48.796;11.978;2022-12-18T11:34:26;98178.66;;;2.29;30.41
25350;BME280;13302;48.796;11.978;2022-12-18T11:37:16;98188.50;;;2.30;30.64
25350;BME280;13302;48.796;11.978;2022-12-18T11:40:31;98181.94;;;2.32;30.50
25350;BME280;13302;48.796;11.978;2022-12-18T11:43:34;98182.50;;;2.34;30.52
25350;BME280;13302;48.796;11.978;2022-12-18T11:46:34;98175.13;;;2.34;30.45
25350;BME280;13302;48.796;11.978;2022-12-18T11:49:28;98174.34;;;2.39;30.50
25350;BME280;13302;48.796;11.978;2022-12-18T11:52:26;98176.81;;;2.40;30.48
25350;BME280;13302;48.796;11.978;2022-12-18T11:55:36;98172.72;;;2.43;30.52
25350;BME280;13302;48.796;11.978;2022-12-18T12:07:44;98159.38;;;2.51;30.41
25350;BME280;13302;48.796;11.978;2022-12-18T12:10:40;98156.09;;;2.54;30.39
25350;BME280;13302;48.796;11.978;2022-12-18T12:19:42;98156.38;;;2.58;30.21
25350;BME280;13302;48.796;11.978;2022-12-18T12:23:14;98147.94;;;2.59;30.15
25350;BME280;13302;48.796;11.978;2022-12-18T12:33:22;98138.94;;;2.59;30.06
25350;BME280;13302;48.796;11.978;2022-12-18T12:39:34;98129.94;;;2.63;29.70
25350;BME280;13302;48.796;11.978;2022-12-18T12:42:29;98131.84;;;2.63;29.77
25350;BME280;13302;48.796;11.978;2022-12-18T12:51:26;98131.03;;;2.62;29.90
25350;BME280;13302;48.796;11.978;2022-12-18T12:54:21;98129.94;;;2.63;30.04
25350;BME280;13302;48.796;11.978;2022-12-18T12:57:23;98136.22;;;2.64;29.96
25350;BME280;13302;48.796;11.978;2022-12-18T13:00:14;98128.56;;;2.66;29.99
25350;BME280;13302;48.796;11.978;2022-12-18T13:03:14;98142.50;;;2.69;30.09
25350;BME280;13302;48.796;11.978;2022-12-18T13:06:16;98135.69;;;2.72;30.03
25350;BME280;13302;48.796;11.978;2022-12-18T13:09:05;98139.25;;;2.72;29.99
25350;BME280;13302;48.796;11.978;2022-12-18T13:11:52;98138.97;;;2.74;30.06
25350;BME280;13302;48.796;11.978;2022-12-18T13:15:21;98146.38;;;2.73;29.94
25350;BME280;13302;48.796;11.978;2022-12-18T13:23:49;98144.16;;;2.75;29.78
25350;BME280;13302;48.796;11.978;2022-12-18T13:26:37;98138.19;;;2.73;29.89
25350;BME280;13302;48.796;11.978;2022-12-18T13:29:43;98143.63;;;2.73;29.83
25350;BME280;13302;48.796;11.978;2022-12-18T13:32:31;98132.16;;;2.76;29.88
25350;BME280;13302;48.796;11.978;2022-12-18T13:44:23;98128.34;;;2.83;29.75
25350;BME280;13302;48.796;11.978;2022-12-18T13:50:22;98126.19;;;2.85;29.87
25350;BME280;13302;48.796;11.978;2022-12-18T13:53:21;98128.91;;;2.85;29.66
25350;BME280;13302;48.796;11.978;2022-12-18T13:56:42;98119.88;;;2.84;29.44
25350;BME280;13302;48.796;11.978;2022-12-18T13:59:34;98113.84;;;2.82;29.54
25350;BME280;13302;48.796;11.978;2022-12-18T14:02:24;98114.41;;;2.79;29.29
25350;BME280;13302;48.796;11.978;2022-12-18T14:05:29;98116.59;;;2.77;29.25
25350;BME280;13302;48.796;11.978;2022-12-18T14:08:18;98119.06;;;2.73;29.19
25350;BME280;13302;48.796;11.978;2022-12-18T14:11:06;98127.75;;;2.70;29.22
25350;BME280;13302;48.796;11.978;2022-12-18T14:13:54;98122.84;;;2.67;29.22
25350;BME280;13302;48.796;11.978;2022-12-18T14:16:41;98122.00;;;2.62;29.22
25350;BME280;13302;48.796;11.978;2022-12-18T14:19:29;98112.72;;;2.58;29.19
25350;BME280;13302;48.796;11.978;2022-12-18T14:22:18;98131.53;;;2.54;29.23
25350;BME280;13302;48.796;11.978;2022-12-18T14:30:53;98133.16;;;2.45;29.12
25350;BME280;13302;48.796;11.978;2022-12-18T14:33:41;98130.69;;;2.44;29.18
25350;BME280;13302;48.796;11.978;2022-12-18T14:36:29;98118.94;;;2.38;29.35
25350;BME280;13302;48.796;11.978;2022-12-18T14:39:17;98111.28;;;2.35;28.99
25350;BME280;13302;48.796;11.978;2022-12-18T14:42:04;98102.00;;;2.31;29.02
25350;BME280;13302;48.796;11.978;2022-12-18T14:44:51;98100.91;;;2.27;29.03
25350;BME280;13302;48.796;11.978;2022-12-18T14:47:59;98117.50;;;2.20;28.85
25350;BME280;13302;48.796;11.978;2022-12-18T14:50:58;98106.28;;;2.12;28.96
25350;BME280;13302;48.796;11.978;2022-12-18T14:53:47;98115.53;;;2.06;29.06
25350;BME280;13302;48.796;11.978;2022-12-18T14:56:51;98111.94;;;1.95;29.12
25350;BME280;13302;48.796;11.978;2022-12-18T14:59:40;98108.34;;;1.90;29.16
25350;BME280;13302;48.796;11.978;2022-12-18T15:02:28;98116.78;;;1.83;29.03
25350;BME280;13302;48.796;11.978;2022-12-18T15:05:30;98118.06;;;1.75;29.03
25350;BME280;13302;48.796;11.978;2022-12-18T15:08:35;98116.66;;;1.68;29.10
25350;BME280;13302;48.796;11.978;2022-12-18T15:11:44;98117.16;;;1.60;28.95
25350;BME280;13302;48.796;11.978;2022-12-18T15:14:41;98119.28;;;1.53;29.16
25350;BME280;13302;48.796;11.978;2022-12-18T15:17:28;98126.34;;;1.49;28.97
25350;BME280;13302;48.796;11.978;2022-12-18T15:20:15;98122.50;;;1.45;28.98
25350;BME280;13302;48.796;11.978;2022-12-18T15:23:02;98126.00;;;1.40;29.05
25350;BME280;13302;48.796;11.978;2022-12-18T15:26:02;98115.34;;;1.33;28.93
25350;BME280;13302;48.796;11.978;2022-12-18T15:28:59;98127.25;;;1.27;28.63
25350;BME280;13302;48.796;11.978;2022-12-18T15:31:58;98132.09;;;1.20;28.77
25350;BME280;13302;48.796;11.978;2022-12-18T15:34:45;98130.16;;;1.16;28.50
25350;BME280;13302;48.796;11.978;2022-12-18T15:37:32;98136.88;;;1.08;28.51
25350;BME280;13302;48.796;11.978;2022-12-18T15:40:22;98135.19;;;1.02;28.27
25350;BME280;13302;48.796;11.978;2022-12-18T15:43:09;98146.31;;;0.96;28.46
25350;BME280;13302;48.796;11.978;2022-12-18T15:46:21;98147.84;;;0.86;28.67
25350;BME280;13302;48.796;11.978;2022-12-18T15:49:09;98147.53;;;0.83;28.63
25350;BME280;13302;48.796;11.978;2022-12-18T15:51:59;98153.19;;;0.76;28.33
25350;BME280;13302;48.796;11.978;2022-12-18T15:54:46;98146.88;;;0.71;28.42
25350;BME280;13302;48.796;11.978;2022-12-18T15:57:51;98134.53;;;0.63;28.23
25350;BME280;13302;48.796;11.978;2022-12-18T16:00:39;98139.91;;;0.58;27.98
25350;BME280;13302;48.796;11.978;2022-12-18T16:03:27;98139.31;;;0.51;28.02
25350;BME280;13302;48.796;11.978;2022-12-18T16:06:14;98137.34;;;0.47;28.18
25350;BME280;13302;48.796;11.978;2022-12-18T16:09:01;98133.72;;;0.41;28.15
25350;BME280;13302;48.796;11.978;2022-12-18T16:11:48;98130.94;;;0.36;28.04
25350;BME280;13302;48.796;11.978;2022-12-18T16:14:35;98124.66;;;0.30;27.82
25350;BME280;13302;48.796;11.978;2022-12-18T16:17:22;98134.38;;;0.26;27.85
25350;BME280;13302;48.796;11.978;2022-12-18T16:20:17;98140.00;;;0.20;27.85
25350;BME280;13302;48.796;11.978;2022-12-18T16:23:05;98138.03;;;0.15;27.57
25350;BME280;13302;48.796;11.978;2022-12-18T16:25:52;98130.91;;;0.09;27.58
25350;BME280;13302;48.796;11.978;2022-12-18T16:28:39;98130.81;;;0.04;27.67
25350;BME280;13302;48.796;11.978;2022-12-18T16:31:33;98120.97;;;-0.02;27.58
25350;BME280;13302;48.796;11.978;2022-12-18T16:34:22;98113.56;;;-0.07;27.45
25350;BME280;13302;48.796;11.978;2022-12-18T16:37:15;98119.75;;;-0.11;27.27